Time;durP1;ratioP1;P1;durP2;ratioP2;P2;SDS_P1;SDS_P2;PMS_P1;PMS_P2;Temp;Humidity;BMP_temperature;BMP_pressure;BME280_temperature;BME280_humidity;BME280_pressure;Samples;Min_cycle;Max_cycle;Signal;HPM_P1;HPM_P2
2021/04/06 00:01:45;;;;;;;5.47;1.30;;;1.20;99.90;;;;;;5101953;28;20574;-53
2021/04/06 00:04:16;;;;;;;2.25;1.45;;;1.30;99.90;;;;;;5110266;27;20191;-54
2021/04/06 00:06:44;;;;;;;5.07;1.60;;;1.30;99.90;;;;;;5107159;28;20565;-53
2021/04/06 00:09:23;;;;;;;1.50;1.38;;;1.40;99.90;;;;;;5093194;27;20681;-53
2021/04/06 00:11:53;;;;;;;2.08;1.20;;;1.50;99.90;;;;;;5101816;27;20553;-53
2021/04/06 00:14:20;;;;;;;4.78;1.50;;;1.40;99.90;;;;;;5101492;27;20270;-54
2021/04/06 00:16:47;;;;;;;2.05;1.17;;;1.40;99.90;;;;;;5094159;27;20221;-53
2021/04/06 00:19:16;;;;;;;3.05;1.60;;;1.50;99.90;;;;;;5104529;28;20242;-54
2021/04/06 00:21:43;;;;;;;2.05;1.10;;;1.50;99.90;;;;;;5109377;28;20207;-54
2021/04/06 00:24:09;;;;;;;2.60;1.40;;;1.30;99.90;;;;;;5129123;27;20195;-54
2021/04/06 00:26:52;;;;;;;1.40;1.15;;;1.30;99.90;;;;;;5093722;28;20183;-54
2021/04/06 00:29:20;;;;;;;2.97;1.10;;;1.40;99.90;;;;;;5104819;27;20683;-53
2021/04/06 00:31:48;;;;;;;2.05;1.25;;;1.30;99.90;;;;;;5100398;28;20198;-54
2021/04/06 00:34:16;;;;;;;2.63;1.30;;;1.20;99.90;;;;;;5098785;27;20241;-54
2021/04/06 00:36:43;;;;;;;4.05;1.20;;;1.20;99.90;;;;;;5095729;28;20223;-54
2021/04/06 00:39:10;;;;;;;2.13;1.45;;;1.40;99.90;;;;;;5102372;28;20302;-54
2021/04/06 00:41:37;;;;;;;3.13;1.55;;;1.30;99.90;;;;;;5105131;28;20178;-53
2021/04/06 00:44:13;;;;;;;2.45;1.33;;;1.20;99.90;;;;;;5110574;28;20186;-53
2021/04/06 00:46:44;;;;;;;3.00;1.40;;;1.50;99.90;;;;;;5110178;28;20197;-53
2021/04/06 00:49:12;;;;;;;2.42;1.35;;;1.40;99.90;;;;;;5102862;28;20215;-54
2021/04/06 00:51:39;;;;;;;3.53;1.20;;;1.50;99.90;;;;;;5112056;28;20268;-54
2021/04/06 00:54:06;;;;;;;7.68;1.50;;;1.00;99.90;;;;;;5104694;28;20239;-53
2021/04/06 00:56:33;;;;;;;1.95;1.60;;;1.20;99.90;;;;;;5096119;28;20547;-53
2021/04/06 00:59:02;;;;;;;2.67;1.65;;;0.70;99.90;;;;;;5103798;28;20191;-53
2021/04/06 01:01:49;;;;;;;1.80;1.35;;;1.10;99.90;;;;;;5102497;28;20644;-53
2021/04/06 01:04:18;;;;;;;2.97;1.90;;;0.90;99.90;;;;;;5109950;27;20194;-53
2021/04/06 01:07:04;;;;;;;3.05;1.52;;;1.10;99.90;;;;;;5114625;27;20183;-53
2021/04/06 01:09:42;;;;;;;1.80;1.35;;;1.30;99.90;;;;;;5114260;27;20683;-54
2021/04/06 01:12:11;;;;;;;1.30;1.20;;;1.10;99.90;;;;;;5106015;27;20587;-53
2021/04/06 01:14:42;;;;;;;3.22;1.50;;;1.20;99.90;;;;;;5111235;27;20347;-53
2021/04/06 01:17:10;;;;;;;1.40;1.30;;;1.10;99.90;;;;;;5112315;27;20602;-53
2021/04/06 01:19:37;;;;;;;1.65;1.55;;;0.90;99.90;;;;;;5112081;27;20242;-53
2021/04/06 01:22:06;;;;;;;2.67;1.58;;;1.00;99.90;;;;;;5112627;27;20176;-53
2021/04/06 01:24:32;;;;;;;1.80;1.60;;;0.90;99.90;;;;;;5108958;27;20209;-53
2021/04/06 01:27:00;;;;;;;2.08;1.60;;;1.10;99.90;;;;;;5103263;27;20656;-54
2021/04/06 01:29:26;;;;;;;1.90;1.63;;;1.00;99.90;;;;;;5097350;27;20672;-53
2021/04/06 01:31:53;;;;;;;3.72;2.13;;;0.90;99.90;;;;;;5105874;27;20240;-53
2021/04/06 01:34:20;;;;;;;4.30;1.83;;;1.10;99.90;;;;;;5106471;27;20298;-53
2021/04/06 01:36:55;;;;;;;2.72;1.70;;;1.00;99.90;;;;;;5111439;27;20218;-53
2021/04/06 01:39:23;;;;;;;3.42;1.40;;;1.00;99.90;;;;;;5105622;27;20194;-53
2021/04/06 01:42:04;;;;;;;2.45;1.67;;;1.00;99.90;;;;;;5105284;27;20187;-53
2021/04/06 01:44:30;;;;;;;2.10;1.50;;;0.90;99.90;;;;;;5114609;27;20550;-53
2021/04/06 01:46:57;;;;;;;2.38;1.90;;;0.80;99.90;;;;;;5106330;27;20248;-53
2021/04/06 01:49:24;;;;;;;5.20;1.98;;;0.50;99.90;;;;;;5107154;28;20282;-52
2021/04/06 01:51:57;;;;;;;2.78;1.60;;;0.90;99.90;;;;;;5095491;27;20578;-53
2021/04/06 01:54:23;;;;;;;1.73;1.60;;;0.70;99.90;;;;;;5109921;28;20211;-53
2021/04/06 01:56:53;;;;;;;2.10;1.55;;;0.70;99.90;;;;;;5108849;28;20217;-53
2021/04/06 01:59:27;;;;;;;4.68;2.17;;;0.80;99.90;;;;;;5126331;27;20206;-53
2021/04/06 02:01:56;;;;;;;2.72;2.35;;;0.50;99.90;;;;;;5101563;27;20182;-52
2021/04/06 02:04:25;;;;;;;3.55;1.92;;;0.90;99.90;;;;;;5113707;27;20179;-53
2021/04/06 02:06:56;;;;;;;2.55;1.45;;;0.90;99.90;;;;;;5100980;28;20707;-53
2021/04/06 02:09:22;;;;;;;5.38;2.13;;;0.70;99.90;;;;;;5124472;27;20206;-53
2021/04/06 02:11:48;;;;;;;4.13;1.58;;;0.50;99.90;;;;;;5110380;27;20668;-53
2021/04/06 02:14:20;;;;;;;1.60;1.43;;;1.00;99.90;;;;;;5104727;27;20214;-54
2021/04/06 02:17:04;;;;;;;6.00;1.70;;;1.00;99.90;;;;;;5106396;27;20542;-53
2021/04/06 02:19:34;;;;;;;2.83;1.50;;;0.70;99.90;;;;;;5104657;27;20239;-53
2021/04/06 02:22:08;;;;;;;2.95;1.70;;;0.70;99.90;;;;;;5102018;28;20191;-54
2021/04/06 02:24:35;;;;;;;4.40;1.98;;;1.00;99.90;;;;;;5101088;27;20202;-54
2021/04/06 02:27:06;;;;;;;4.68;1.85;;;0.70;99.90;;;;;;5109434;27;20183;-53
2021/04/06 02:29:46;;;;;;;2.67;1.67;;;0.80;99.90;;;;;;5110928;27;20218;-53
2021/04/06 02:32:21;;;;;;;3.25;2.30;;;0.70;99.90;;;;;;5106311;27;20181;-53
2021/04/06 02:34:49;;;;;;;3.03;1.67;;;0.80;99.90;;;;;;5104896;27;20203;-52
2021/04/06 02:37:19;;;;;;;3.30;1.50;;;0.90;99.90;;;;;;5101684;27;20179;-53
2021/04/06 02:39:46;;;;;;;2.95;1.88;;;0.80;99.90;;;;;;5111049;27;20194;-53
2021/04/06 02:42:32;;;;;;;1.80;1.70;;;0.80;99.90;;;;;;5107854;27;20180;-53
2021/04/06 02:45:10;;;;;;;3.50;1.75;;;0.70;99.90;;;;;;5108287;27;20214;-52
2021/04/06 02:47:41;;;;;;;4.60;2.38;;;0.70;99.90;;;;;;5112498;27;20255;-53
2021/04/06 02:50:12;;;;;;;1.80;1.50;;;0.50;99.90;;;;;;5104076;27;20204;-53
2021/04/06 02:52:39;;;;;;;2.30;1.73;;;0.70;99.90;;;;;;5111679;27;20190;-53
2021/04/06 02:55:06;;;;;;;5.03;1.83;;;0.70;99.90;;;;;;5107634;28;20172;-53
2021/04/06 02:57:32;;;;;;;1.65;1.40;;;0.80;99.90;;;;;;5094277;27;20215;-53
2021/04/06 02:59:58;;;;;;;2.20;1.63;;;0.70;99.90;;;;;;5102990;27;20203;-53
2021/04/06 03:02:23;;;;;;;3.37;2.10;;;0.50;99.90;;;;;;5112811;27;20206;-52
2021/04/06 03:04:50;;;;;;;3.63;1.80;;;0.10;99.90;;;;;;5109287;28;20538;-53
2021/04/06 03:07:24;;;;;;;2.15;1.48;;;0.60;99.90;;;;;;5105667;27;20444;-52
2021/04/06 03:09:53;;;;;;;1.95;1.35;;;0.90;99.70;;;;;;5105296;28;20230;-54
2021/04/06 03:12:20;;;;;;;3.53;2.03;;;0.60;99.90;;;;;;5104059;28;20179;-53
2021/04/06 03:14:47;;;;;;;3.72;1.98;;;0.90;99.90;;;;;;5107078;27;20202;-53
2021/04/06 03:17:13;;;;;;;2.72;1.65;;;0.80;99.80;;;;;;5106486;27;20237;-53
2021/04/06 03:19:39;;;;;;;2.45;1.70;;;0.80;99.50;;;;;;5104871;27;20295;-53
2021/04/06 03:22:08;;;;;;;2.70;1.50;;;0.70;99.00;;;;;;5101256;27;20631;-53
2021/04/06 03:24:34;;;;;;;3.65;1.73;;;0.80;98.70;;;;;;5101363;28;20182;-52
2021/04/06 03:27:02;;;;;;;2.05;1.80;;;0.80;99.30;;;;;;5100679;27;20184;-52
2021/04/06 03:29:28;;;;;;;1.73;1.50;;;0.60;99.60;;;;;;5104166;27;20203;-52
2021/04/06 03:31:55;;;;;;;1.95;1.70;;;0.80;99.40;;;;;;5116060;27;20188;-53
2021/04/06 03:34:21;;;;;;;2.70;2.20;;;0.70;99.30;;;;;;5104699;27;20203;-54
2021/04/06 03:36:47;;;;;;;2.93;1.67;;;0.90;99.50;;;;;;5096761;27;20180;-53
2021/04/06 03:39:13;;;;;;;6.00;1.85;;;0.60;99.90;;;;;;5100349;28;20219;-54
2021/04/06 03:41:40;;;;;;;2.63;2.00;;;0.80;99.90;;;;;;5094573;27;20230;-54
2021/04/06 03:44:07;;;;;;;2.92;2.25;;;0.80;99.90;;;;;;5105413;27;20445;-53
2021/04/06 03:46:37;;;;;;;2.75;1.40;;;0.60;99.90;;;;;;5103442;27;20183;-53
2021/04/06 03:49:12;;;;;;;3.30;1.85;;;0.80;99.90;;;;;;5120489;27;20588;-53
2021/04/06 03:51:52;;;;;;;3.50;1.90;;;0.80;99.20;;;;;;5104890;27;20174;-53
2021/04/06 03:54:31;;;;;;;3.15;1.75;;;0.90;98.60;;;;;;5110671;27;20582;-53
2021/04/06 03:56:57;;;;;;;2.85;1.70;;;1.00;98.30;;;;;;5096745;27;20663;-53
2021/04/06 03:59:27;;;;;;;2.80;1.70;;;1.20;98.60;;;;;;5102869;27;20199;-53
2021/04/06 04:01:54;;;;;;;2.65;1.80;;;0.90;98.30;;;;;;5098166;27;20441;-53
2021/04/06 04:04:19;;;;;;;2.78;1.63;;;1.30;97.90;;;;;;5107634;28;20275;-54
2021/04/06 04:06:45;;;;;;;3.50;2.03;;;1.10;97.70;;;;;;5104778;28;20324;-54
2021/04/06 04:09:11;;;;;;;1.73;1.60;;;1.20;97.80;;;;;;5105358;27;20211;-55
2021/04/06 04:11:36;;;;;;;5.93;2.77;;;1.00;97.80;;;;;;5096406;27;20675;-54
2021/04/06 04:14:02;;;;;;;6.60;2.10;;;1.10;97.60;;;;;;5106661;28;20211;-53
2021/04/06 04:16:28;;;;;;;4.70;2.20;;;1.00;97.50;;;;;;5113491;27;20297;-54
2021/04/06 04:18:53;;;;;;;2.53;1.90;;;1.20;97.70;;;;;;5109345;27;20225;-53
2021/04/06 04:21:19;;;;;;;4.17;2.30;;;1.00;98.00;;;;;;5097758;28;20434;-53
2021/04/06 04:23:45;;;;;;;3.63;2.00;;;0.90;97.60;;;;;;5092269;27;20226;-54
2021/04/06 04:26:10;;;;;;;4.00;2.00;;;1.20;97.90;;;;;;5119358;27;20641;-54
2021/04/06 04:28:36;;;;;;;3.50;2.50;;;1.10;98.30;;;;;;5096839;28;20210;-53
2021/04/06 04:31:11;;;;;;;3.63;2.27;;;1.50;98.50;;;;;;5120646;27;20284;-53
2021/04/06 04:33:37;;;;;;;2.17;1.80;;;1.10;97.70;;;;;;5107371;28;20294;-53
2021/04/06 04:36:02;;;;;;;2.63;2.03;;;1.10;97.40;;;;;;5096603;28;20232;-54
2021/04/06 04:38:28;;;;;;;3.30;2.03;;;1.20;97.30;;;;;;5104658;28;20445;-53
2021/04/06 04:40:54;;;;;;;5.40;2.27;;;1.00;97.40;;;;;;5120281;27;20436;-53
2021/04/06 04:43:19;;;;;;;4.57;2.60;;;1.30;97.40;;;;;;5108211;27;20339;-52
2021/04/06 04:45:46;;;;;;;4.17;2.30;;;0.90;97.80;;;;;;5113700;27;20224;-53
2021/04/06 04:48:11;;;;;;;2.95;1.80;;;1.10;98.10;;;;;;5115430;27;20602;-51
2021/04/06 04:50:37;;;;;;;4.10;2.70;;;1.00;98.10;;;;;;5110993;27;20207;-51
2021/04/06 04:53:03;;;;;;;4.33;2.13;;;1.20;98.40;;;;;;5104048;27;20194;-52
2021/04/06 04:55:28;;;;;;;4.83;2.30;;;1.10;97.90;;;;;;5109404;27;20171;-51
2021/04/06 04:57:54;;;;;;;5.30;2.90;;;1.40;97.90;;;;;;5115627;27;20183;-51
2021/04/06 05:00:20;;;;;;;5.10;2.37;;;1.40;98.00;;;;;;5100447;27;20224;-51
2021/04/06 05:02:49;;;;;;;3.67;2.50;;;1.20;98.30;;;;;;5100742;28;20171;-52
2021/04/06 05:05:17;;;;;;;4.80;2.53;;;1.00;98.50;;;;;;5113637;27;20175;-51
2021/04/06 05:07:43;;;;;;;3.83;1.90;;;1.00;98.00;;;;;;5099557;28;20187;-51
2021/04/06 05:10:12;;;;;;;4.28;2.70;;;1.10;98.20;;;;;;5099010;27;20723;-52
2021/04/06 05:12:38;;;;;;;5.15;2.58;;;1.50;98.80;;;;;;5110023;27;20213;-53
2021/04/06 05:15:06;;;;;;;2.33;2.13;;;1.40;98.70;;;;;;5108352;27;20203;-54
2021/04/06 05:17:31;;;;;;;4.03;2.70;;;1.30;98.50;;;;;;5112240;28;20275;-53
2021/04/06 05:19:57;;;;;;;3.27;2.17;;;1.30;98.20;;;;;;5128410;27;20271;-52
2021/04/06 05:22:22;;;;;;;5.53;3.40;;;1.30;98.80;;;;;;5104623;27;20184;-51
2021/04/06 05:24:49;;;;;;;6.33;2.60;;;1.30;98.80;;;;;;5126503;27;20188;-51
2021/04/06 05:27:15;;;;;;;19.98;12.43;;;1.10;99.50;;;;;;5108202;27;20286;-50
2021/04/06 05:29:41;;;;;;;3.50;2.73;;;1.50;99.90;;;;;;5113717;27;20798;-50
2021/04/06 05:32:07;;;;;;;4.33;2.63;;;1.10;99.80;;;;;;5112610;27;20500;-53
2021/04/06 05:34:32;;;;;;;3.10;2.63;;;1.50;99.30;;;;;;5117406;27;20214;-52
2021/04/06 05:36:58;;;;;;;3.47;2.30;;;1.70;99.30;;;;;;5105435;27;20270;-53
2021/04/06 05:39:24;;;;;;;6.97;2.87;;;1.40;98.80;;;;;;5107591;27;20214;-53
2021/04/06 05:41:50;;;;;;;2.80;2.23;;;1.70;98.90;;;;;;5106599;27;20322;-53
2021/04/06 05:44:16;;;;;;;3.13;2.83;;;1.50;98.60;;;;;;5105625;27;20206;-51
2021/04/06 05:46:46;;;;;;;3.30;2.20;;;1.50;98.80;;;;;;5102028;28;20436;-52
2021/04/06 05:49:14;;;;;;;6.32;3.03;;;1.70;98.70;;;;;;5113391;27;20250;-52
2021/04/06 05:51:41;;;;;;;3.30;2.42;;;1.60;98.50;;;;;;5102363;27;20190;-52
2021/04/06 05:54:10;;;;;;;2.88;2.35;;;1.80;98.50;;;;;;5110711;27;20286;-52
2021/04/06 05:56:36;;;;;;;9.20;2.90;;;1.80;98.40;;;;;;5107054;27;20347;-51
2021/04/06 05:59:03;;;;;;;3.33;2.17;;;1.60;98.40;;;;;;5110646;27;20340;-53
2021/04/06 06:01:30;;;;;;;4.43;2.20;;;1.70;98.40;;;;;;5109162;27;20525;-50
2021/04/06 06:03:56;;;;;;;5.75;2.90;;;1.50;98.10;;;;;;5102357;27;20179;-50
2021/04/06 06:06:22;;;;;;;4.40;2.05;;;1.70;98.20;;;;;;5106736;27;20184;-52
2021/04/06 06:08:54;;;;;;;6.65;2.50;;;1.70;98.20;;;;;;5104061;27;20742;-50
2021/04/06 06:11:20;;;;;;;4.75;2.58;;;1.90;98.50;;;;;;5105761;27;20179;-51
2021/04/06 06:13:46;;;;;;;5.70;2.47;;;1.80;98.40;;;;;;5110806;27;20748;-54
2021/04/06 06:16:20;;;;;;;3.40;2.00;;;2.10;98.70;;;;;;5110286;27;20202;-53
2021/04/06 06:19:05;;;;;;;4.03;2.30;;;1.90;98.00;;;;;;5110914;27;20225;-51
2021/04/06 06:21:43;;;;;;;9.18;2.47;;;1.80;98.30;;;;;;5101775;27;20183;-52
2021/04/06 06:24:10;;;;;;;3.78;2.40;;;1.60;98.00;;;;;;5102045;27;20187;-53
2021/04/06 06:26:36;;;;;;;5.70;2.50;;;1.90;97.80;;;;;;5107370;27;20175;-54
2021/04/06 06:29:10;;;;;;;4.00;2.55;;;1.90;97.80;;;;;;5108045;27;20997;-53
2021/04/06 06:31:42;;;;;;;3.00;2.60;;;2.00;98.10;;;;;;5105324;27;20192;-51
2021/04/06 06:34:31;;;;;;;2.72;2.35;;;2.10;98.20;;;;;;5102791;27;20675;-51
2021/04/06 06:37:06;;;;;;;4.40;2.63;;;2.40;98.10;;;;;;5095869;27;20555;-51
2021/04/06 06:39:36;;;;;;;4.30;2.90;;;2.50;97.80;;;;;;5109642;27;20198;-52
2021/04/06 06:42:10;;;;;;;4.78;3.10;;;2.40;97.70;;;;;;5105216;27;20183;-52
2021/04/06 06:44:36;;;;;;;3.28;2.45;;;2.60;97.90;;;;;;5094962;28;20182;-52
2021/04/06 06:47:23;;;;;;;3.47;2.28;;;2.40;97.80;;;;;;5096676;28;20629;-51
2021/04/06 06:49:53;;;;;;;6.80;2.58;;;2.40;97.70;;;;;;5106559;27;20288;-51
2021/04/06 06:52:21;;;;;;;5.47;2.90;;;2.40;97.60;;;;;;5101359;28;20208;-51
2021/04/06 06:54:55;;;;;;;3.50;2.60;;;2.60;97.10;;;;;;5101204;27;20676;-52
2021/04/06 06:57:35;;;;;;;5.68;2.22;;;2.70;97.10;;;;;;5101681;27;20195;-53
2021/04/06 07:00:08;;;;;;;4.55;2.20;;;2.80;96.60;;;;;;5099240;27;20290;-51
2021/04/06 07:02:34;;;;;;;5.18;2.67;;;2.80;97.00;;;;;;5117449;27;20183;-54
2021/04/06 07:05:13;;;;;;;4.82;2.30;;;2.70;96.40;;;;;;5097518;28;20199;-53
2021/04/06 07:07:53;;;;;;;3.13;2.20;;;2.80;96.80;;;;;;5097194;28;20176;-53
2021/04/06 07:10:27;;;;;;;7.38;2.35;;;3.20;96.10;;;;;;5111676;27;20238;-52
2021/04/06 07:12:59;;;;;;;12.38;2.67;;;2.70;95.20;;;;;;5107388;27;20198;-51
2021/04/06 07:15:26;;;;;;;3.33;2.60;;;3.00;95.90;;;;;;5094053;28;20652;-50
2021/04/06 07:18:02;;;;;;;5.03;2.25;;;3.50;95.40;;;;;;5106290;27;20195;-49
2021/04/06 07:20:30;;;;;;;4.22;2.72;;;3.50;95.00;;;;;;5113568;27;20776;-51
2021/04/06 07:22:59;;;;;;;3.50;2.13;;;3.70;94.70;;;;;;5098250;28;20218;-51
2021/04/06 07:25:26;;;;;;;4.72;2.67;;;3.90;94.60;;;;;;5103726;27;20175;-50
2021/04/06 07:27:52;;;;;;;6.88;2.75;;;4.10;94.80;;;;;;5107520;27;20187;-52
2021/04/06 07:30:19;;;;;;;3.22;2.60;;;4.10;94.30;;;;;;5111087;27;20206;-54
2021/04/06 07:32:45;;;;;;;6.55;2.60;;;4.40;93.50;;;;;;5104359;28;20184;-53
2021/04/06 07:35:12;;;;;;;7.32;2.10;;;4.40;93.40;;;;;;5103008;27;20211;-54
2021/04/06 07:37:44;;;;;;;3.67;2.47;;;4.60;92.60;;;;;;5122375;27;20191;-56
2021/04/06 07:40:12;;;;;;;2.35;2.15;;;4.70;92.60;;;;;;5102647;27;20199;-54
2021/04/06 07:42:40;;;;;;;5.05;2.13;;;4.40;92.10;;;;;;5104475;27;20310;-53
2021/04/06 07:45:22;;;;;;;3.13;2.33;;;4.50;92.00;;;;;;5120299;27;20586;-55
2021/04/06 07:47:49;;;;;;;4.32;2.40;;;4.50;92.40;;;;;;5122946;27;20199;-52
2021/04/06 07:50:43;;;;;;;6.18;2.60;;;4.40;92.40;;;;;;5106527;27;20418;-53
2021/04/06 07:53:19;;;;;;;2.65;2.30;;;4.40;93.00;;;;;;5104855;27;20552;-52
2021/04/06 07:55:45;;;;;;;4.25;3.83;;;4.80;92.90;;;;;;5100230;28;21385;-52
2021/04/06 07:58:10;;;;;;;8.33;2.93;;;5.20;92.40;;;;;;5106121;27;20277;-53
2021/04/06 08:00:49;;;;;;;4.87;2.50;;;5.20;91.90;;;;;;5104349;27;20458;-53
2021/04/06 08:03:49;;;;;;;7.30;2.35;;;4.70;92.60;;;;;;5099225;27;20523;-53
2021/04/06 08:06:18;;;;;;;6.35;3.15;;;4.70;92.20;;;;;;5104211;27;20555;-53
2021/04/06 08:08:44;;;;;;;3.58;2.40;;;4.80;92.30;;;;;;5099350;27;20705;-53
2021/04/06 08:11:10;;;;;;;4.43;2.73;;;4.90;91.90;;;;;;5097257;28;20199;-52
2021/04/06 08:13:35;;;;;;;2.60;2.20;;;5.10;91.90;;;;;;5104819;28;20211;-52
2021/04/06 08:16:18;;;;;;;7.70;2.77;;;5.40;91.30;;;;;;5106530;27;20187;-52
2021/04/06 08:18:55;;;;;;;4.07;2.20;;;5.70;90.80;;;;;;5106281;27;20760;-52
2021/04/06 08:21:24;;;;;;;4.93;2.35;;;5.60;90.10;;;;;;5106467;27;20293;-52
2021/04/06 08:23:52;;;;;;;2.92;2.20;;;5.60;89.70;;;;;;5100197;28;20273;-52
2021/04/06 08:26:35;;;;;;;2.80;2.22;;;5.20;90.40;;;;;;5099517;28;20848;-51
2021/04/06 08:29:22;;;;;;;5.10;2.50;;;5.50;91.10;;;;;;5098431;27;20579;-52
2021/04/06 08:32:15;;;;;;;4.47;2.72;;;5.70;90.20;;;;;;5122222;27;20217;-52
2021/04/06 08:34:54;;;;;;;5.72;3.10;;;5.50;90.50;;;;;;5103093;27;20236;-51
2021/04/06 08:37:39;;;;;;;2.72;2.10;;;6.00;90.40;;;;;;5110375;28;20190;-52
2021/04/06 08:40:06;;;;;;;5.80;2.83;;;5.50;89.20;;;;;;5104720;28;20202;-51
2021/04/06 08:42:33;;;;;;;4.97;2.30;;;5.50;89.80;;;;;;5105046;28;20421;-54
2021/04/06 08:45:00;;;;;;;5.32;2.63;;;5.60;90.00;;;;;;5093006;28;20190;-53
2021/04/06 08:47:46;;;;;;;5.88;2.50;;;5.70;90.20;;;;;;5105683;28;20734;-50
2021/04/06 08:50:33;;;;;;;4.90;2.85;;;5.50;90.10;;;;;;5122926;27;20210;-50
2021/04/06 08:52:59;;;;;;;3.97;2.72;;;5.60;90.60;;;;;;5105361;28;20192;-51
2021/04/06 08:55:25;;;;;;;2.80;2.03;;;5.70;90.50;;;;;;5106658;28;20211;-51
2021/04/06 08:57:58;;;;;;;4.43;1.90;;;5.10;91.10;;;;;;5108044;28;20228;-50
2021/04/06 09:00:25;;;;;;;4.88;2.33;;;5.40;92.00;;;;;;5102080;28;20467;-50
2021/04/06 09:03:05;;;;;;;6.72;2.35;;;5.20;92.00;;;;;;5100411;28;20566;-52
2021/04/06 09:05:30;;;;;;;5.57;2.38;;;5.10;91.80;;;;;;5104734;28;20178;-52
2021/04/06 09:07:56;;;;;;;5.40;2.27;;;5.20;91.80;;;;;;5119929;28;20204;-54
2021/04/06 09:10:22;;;;;;;5.60;1.90;;;5.30;91.30;;;;;;5105399;28;20203;-52
2021/04/06 09:12:50;;;;;;;4.23;2.47;;;5.70;91.10;;;;;;5126516;28;20168;-53
2021/04/06 09:15:20;;;;;;;3.90;2.10;;;5.40;90.80;;;;;;5101809;28;20460;-52
2021/04/06 09:17:45;;;;;;;5.32;2.50;;;5.40;90.50;;;;;;5099237;28;20185;-53
2021/04/06 09:20:14;;;;;;;3.50;1.90;;;5.50;90.80;;;;;;5103610;28;20294;-54
2021/04/06 09:22:41;;;;;;;5.57;2.53;;;5.40;90.00;;;;;;5106009;28;20197;-53
2021/04/06 09:25:21;;;;;;;4.05;2.08;;;5.80;88.80;;;;;;5102038;27;20180;-53
2021/04/06 09:27:59;;;;;;;2.78;2.05;;;5.90;88.70;;;;;;5104829;27;20207;-54
2021/04/06 09:30:33;;;;;;;2.40;1.80;;;6.40;88.90;;;;;;5124498;27;20500;-54
2021/04/06 09:33:14;;;;;;;6.35;2.10;;;6.50;85.90;;;;;;5099773;28;20657;-55
2021/04/06 09:35:45;;;;;;;3.63;2.33;;;6.10;85.60;;;;;;5113727;27;20274;-55
2021/04/06 09:38:13;;;;;;;3.38;2.00;;;6.30;86.00;;;;;;5104202;27;20193;-54
2021/04/06 09:40:42;;;;;;;2.45;1.75;;;6.00;85.40;;;;;;5104883;27;20611;-54
2021/04/06 09:43:15;;;;;;;5.47;2.40;;;5.90;87.60;;;;;;5107032;27;20191;-55
2021/04/06 09:45:41;;;;;;;3.75;1.90;;;5.80;87.40;;;;;;5109541;27;20186;-51
2021/04/06 09:48:11;;;;;;;4.35;2.40;;;5.70;87.40;;;;;;5101130;28;20278;-52
2021/04/06 09:50:36;;;;;;;3.70;2.20;;;5.70;87.50;;;;;;5104676;27;20284;-52
2021/04/06 09:53:14;;;;;;;5.07;2.13;;;5.80;87.60;;;;;;5111723;27;20214;-53
2021/04/06 09:55:40;;;;;;;4.13;2.30;;;5.80;88.40;;;;;;5127414;27;20573;-53
2021/04/06 09:58:06;;;;;;;3.60;2.00;;;5.90;88.40;;;;;;5111763;27;20179;-53
2021/04/06 10:00:35;;;;;;;2.77;2.07;;;6.20;87.40;;;;;;5104874;27;20218;-55
2021/04/06 10:03:03;;;;;;;4.85;2.92;;;6.40;85.50;;;;;;5105811;27;20183;-54
2021/04/06 10:05:29;;;;;;;3.10;2.00;;;7.00;85.20;;;;;;5111220;27;20262;-53
2021/04/06 10:07:55;;;;;;;3.53;2.90;;;6.90;83.50;;;;;;5104929;27;20723;-54
2021/04/06 10:10:28;;;;;;;3.10;1.90;;;7.00;82.90;;;;;;5110276;27;20206;-55
2021/04/06 10:12:55;;;;;;;2.97;2.33;;;6.90;82.20;;;;;;5095720;28;20258;-54
2021/04/06 10:15:26;;;;;;;4.20;2.00;;;6.80;81.60;;;;;;5113048;27;20589;-53
2021/04/06 10:17:53;;;;;;;2.20;1.65;;;6.60;81.70;;;;;;5126121;27;20618;-52
2021/04/06 10:20:22;;;;;;;3.85;2.15;;;6.60;81.50;;;;;;5101584;27;20202;-54
2021/04/06 10:22:57;;;;;;;3.15;2.50;;;6.30;80.30;;;;;;5107854;27;20183;-52
2021/04/06 10:25:32;;;;;;;2.67;1.90;;;6.90;80.20;;;;;;5103601;27;20186;-51
2021/04/06 10:28:01;;;;;;;2.95;2.15;;;6.70;78.70;;;;;;5105171;27;20764;-51
2021/04/06 10:30:57;;;;;;;8.90;1.73;;;6.60;77.30;;;;;;5097662;28;20196;-51
2021/04/06 10:33:34;;;;;;;3.30;1.85;;;7.00;78.10;;;;;;5104349;28;20243;-51
2021/04/06 10:36:04;;;;;;;4.50;2.38;;;6.70;75.90;;;;;;5101048;28;20189;-52
2021/04/06 10:38:35;;;;;;;4.00;2.22;;;7.00;76.50;;;;;;5103722;27;20194;-51
2021/04/06 10:41:08;;;;;;;4.63;2.60;;;6.90;75.80;;;;;;5110106;27;20315;-52
2021/04/06 10:43:35;;;;;;;4.05;2.28;;;6.90;76.20;;;;;;5106956;28;20256;-52
2021/04/06 10:46:05;;;;;;;5.10;2.30;;;6.60;74.80;;;;;;5102176;27;20198;-51
2021/04/06 10:48:36;;;;;;;4.90;2.17;;;6.40;75.60;;;;;;5100912;27;20187;-51
2021/04/06 10:51:23;;;;;;;3.20;1.90;;;6.30;76.00;;;;;;5097025;27;20187;-52
2021/04/06 10:53:55;;;;;;;2.53;2.03;;;6.70;78.00;;;;;;5108956;27;20691;-52
2021/04/06 10:56:22;;;;;;;6.82;1.83;;;6.90;77.60;;;;;;5107146;27;20179;-51
2021/04/06 10:58:58;;;;;;;3.95;2.63;;;7.30;77.60;;;;;;5110188;27;20202;-51
2021/04/06 11:01:42;;;;;;;3.72;2.53;;;7.30;77.10;;;;;;5105111;27;20182;-51
2021/04/06 11:04:17;;;;;;;3.25;2.00;;;7.80;76.20;;;;;;5121024;27;20175;-52
2021/04/06 11:06:58;;;;;;;3.60;2.28;;;8.30;74.30;;;;;;5098936;27;20190;-51
2021/04/06 11:09:32;;;;;;;6.35;2.30;;;8.60;71.00;;;;;;5108529;27;20238;-53
2021/04/06 11:11:58;;;;;;;5.28;2.15;;;8.40;69.90;;;;;;5101506;27;20616;-53
2021/04/06 11:14:25;;;;;;;4.20;2.40;;;8.60;70.60;;;;;;5109436;27;20195;-51
2021/04/06 11:16:52;;;;;;;4.22;2.40;;;8.30;69.20;;;;;;5107475;27;20542;-51
2021/04/06 11:19:24;;;;;;;3.50;1.92;;;8.20;70.50;;;;;;5097796;27;20206;-51
2021/04/06 11:21:55;;;;;;;3.60;1.83;;;7.90;70.10;;;;;;5096617;27;20235;-54
2021/04/06 11:24:23;;;;;;;5.50;1.88;;;7.50;71.40;;;;;;5104134;27;20203;-52
2021/04/06 11:26:50;;;;;;;2.58;1.60;;;7.20;72.00;;;;;;5099119;27;20240;-49
2021/04/06 11:29:19;;;;;;;5.88;2.45;;;7.40;72.30;;;;;;5103046;28;20200;-51
2021/04/06 11:31:47;;;;;;;6.80;2.22;;;7.60;71.90;;;;;;5097912;27;21450;-53
2021/04/06 11:34:15;;;;;;;8.65;3.20;;;8.00;70.50;;;;;;5125525;27;20206;-51
2021/04/06 11:36:43;;;;;;;4.25;2.33;;;8.30;71.10;;;;;;5121893;27;20172;-52
2021/04/06 11:39:10;;;;;;;7.97;1.85;;;8.70;65.10;;;;;;5100442;27;20199;-51
2021/04/06 11:41:37;;;;;;;3.83;2.00;;;8.80;64.30;;;;;;5109588;27;20183;-52
2021/04/06 11:44:04;;;;;;;3.17;2.40;;;8.90;64.40;;;;;;5100906;28;20732;-50
2021/04/06 11:46:32;;;;;;;4.40;2.42;;;8.90;64.50;;;;;;5105664;27;20175;-51
2021/04/06 11:48:57;;;;;;;4.97;2.20;;;8.40;64.60;;;;;;5123429;27;20582;-50
2021/04/06 11:51:23;;;;;;;4.60;2.17;;;8.20;65.70;;;;;;5106955;27;20204;-52
2021/04/06 11:53:49;;;;;;;4.30;2.07;;;8.00;65.60;;;;;;5110560;27;20275;-55
2021/04/06 11:56:15;;;;;;;2.30;2.00;;;7.90;64.60;;;;;;5101290;27;20612;-55
2021/04/06 11:58:41;;;;;;;2.83;1.95;;;7.90;65.00;;;;;;5120766;27;20671;-53
2021/04/06 12:01:06;;;;;;;4.50;2.20;;;7.60;65.90;;;;;;5100245;27;20253;-52
2021/04/06 12:03:32;;;;;;;3.23;2.03;;;7.20;65.80;;;;;;5105046;27;20222;-54
2021/04/06 12:05:58;;;;;;;6.77;2.43;;;7.10;66.40;;;;;;5104706;27;20222;-54
2021/04/06 12:08:23;;;;;;;3.00;1.80;;;7.10;65.90;;;;;;5102153;28;20559;-54
2021/04/06 12:10:49;;;;;;;2.73;2.07;;;7.10;64.00;;;;;;5110380;27;20436;-53
2021/04/06 12:13:15;;;;;;;3.40;2.00;;;7.30;63.70;;;;;;5129006;27;20671;-54
2021/04/06 12:15:41;;;;;;;3.50;2.10;;;7.30;63.80;;;;;;5106453;27;20255;-55
2021/04/06 12:18:07;;;;;;;3.00;2.00;;;7.30;64.00;;;;;;5115060;27;20188;-55
2021/04/06 12:20:32;;;;;;;3.83;2.07;;;7.10;64.70;;;;;;5104630;27;20214;-51
2021/04/06 12:22:59;;;;;;;4.10;2.40;;;7.20;65.60;;;;;;5109291;27;20447;-53
2021/04/06 12:25:25;;;;;;;4.30;1.77;;;7.20;65.70;;;;;;5119771;27;20174;-53
2021/04/06 12:27:51;;;;;;;3.80;1.70;;;7.20;64.20;;;;;;5096630;28;20183;-55
2021/04/06 12:30:17;;;;;;;2.33;1.83;;;7.70;65.40;;;;;;5096332;28;20248;-53
2021/04/06 12:32:43;;;;;;;5.50;2.08;;;7.50;64.20;;;;;;5101066;28;20490;-52
2021/04/06 12:35:10;;;;;;;3.10;2.00;;;7.60;64.50;;;;;;5100193;27;20207;-53
2021/04/06 12:37:41;;;;;;;3.17;2.45;;;7.90;64.60;;;;;;5101006;28;20175;-54
2021/04/06 12:40:08;;;;;;;2.85;1.58;;;7.90;63.20;;;;;;5095359;28;20286;-57
2021/04/06 12:42:37;;;;;;;3.25;2.05;;;7.60;59.30;;;;;;5105878;28;20222;-53
2021/04/06 12:45:11;;;;;;;1.88;1.30;;;7.70;58.30;;;;;;5103061;28;20226;-52
2021/04/06 12:47:52;;;;;;;3.45;1.98;;;8.00;59.20;;;;;;5104755;28;20647;-52
2021/04/06 12:50:18;;;;;;;3.08;1.85;;;7.90;59.60;;;;;;5100439;28;20234;-51
2021/04/06 12:52:49;;;;;;;4.15;1.98;;;7.80;60.70;;;;;;5092951;28;20184;-54
2021/04/06 12:55:20;;;;;;;3.67;1.77;;;7.80;59.30;;;;;;5126676;28;20207;-52
2021/04/06 12:57:51;;;;;;;2.13;1.40;;;8.00;57.20;;;;;;5103939;28;20266;-54
2021/04/06 13:00:18;;;;;;;2.95;1.70;;;8.50;56.20;;;;;;5098300;27;20288;-54
2021/04/06 13:02:46;;;;;;;3.67;1.50;;;8.40;55.20;;;;;;5099454;27;20179;-54
2021/04/06 13:05:16;;;;;;;2.65;2.10;;;8.40;56.10;;;;;;5107636;27;20578;-54
2021/04/06 13:07:47;;;;;;;2.85;1.67;;;8.30;55.80;;;;;;5107929;27;20186;-53
2021/04/06 13:10:17;;;;;;;1.75;1.40;;;8.10;57.00;;;;;;5108055;27;20488;-52
2021/04/06 13:12:50;;;;;;;2.25;1.80;;;8.10;57.60;;;;;;5106856;27;20182;-52